Time;durP1;ratioP1;P1;durP2;ratioP2;P2;SDS_P1;SDS_P2;PMS_P1;PMS_P2;Temp;Humidity;BMP_temperature;BMP_pressure;BME280_temperature;BME280_humidity;BME280_pressure;Samples;Min_cycle;Max_cycle;Signal;HPM_P1;HPM_P2
2023/05/17 00:02:10;;;;;;;1.00;0.57;;;9.40;99.90;;;;;;5074907;28;20407;-67
2023/05/17 00:04:35;;;;;;;3.22;0.60;;;9.30;99.90;;;;;;5091226;28;20044;-67
2023/05/17 00:07:01;;;;;;;7.32;1.15;;;9.20;99.90;;;;;;5074993;28;20400;-67
2023/05/17 00:09:27;;;;;;;0.70;0.40;;;9.10;99.90;;;;;;5093429;28;20123;-67
2023/05/17 00:11:53;;;;;;;4.30;1.13;;;9.00;99.90;;;;;;5091084;28;20115;-67
2023/05/17 00:14:19;;;;;;;2.42;0.70;;;8.90;99.90;;;;;;5091640;28;20082;-67
2023/05/17 00:16:44;;;;;;;0.25;0.20;;;8.90;99.90;;;;;;5091206;28;20515;-68
2023/05/17 00:19:10;;;;;;;1.98;0.50;;;8.80;99.90;;;;;;5091555;28;20040;-68
2023/05/17 00:21:36;;;;;;;6.63;1.65;;;8.70;99.90;;;;;;5061839;28;20409;-67
2023/05/17 00:24:03;;;;;;;2.50;1.17;;;8.60;99.90;;;;;;5053910;28;20582;-67
2023/05/17 00:26:28;;;;;;;3.25;0.73;;;8.50;99.90;;;;;;5071162;28;20074;-67
2023/05/17 00:28:54;;;;;;;3.58;0.70;;;8.50;99.90;;;;;;5071092;28;20044;-68
2023/05/17 00:31:20;;;;;;;1.23;0.88;;;8.40;99.90;;;;;;5070598;28;20049;-67
2023/05/17 00:33:46;;;;;;;4.60;0.50;;;8.40;99.90;;;;;;5054346;28;20106;-67
2023/05/17 00:36:12;;;;;;;1.00;0.50;;;8.30;99.90;;;;;;5071254;28;20037;-68
2023/05/17 00:38:38;;;;;;;3.03;1.17;;;8.20;99.90;;;;;;5071721;28;20029;-68
2023/05/17 00:41:04;;;;;;;0.93;0.77;;;8.10;99.90;;;;;;5071045;28;20051;-67
2023/05/17 00:43:30;;;;;;;1.23;0.77;;;8.00;99.90;;;;;;5072266;28;20127;-68
2023/05/17 00:45:55;;;;;;;0.45;0.30;;;7.90;99.90;;;;;;5071732;28;20040;-68
2023/05/17 00:48:24;;;;;;;1.25;0.43;;;7.80;99.90;;;;;;5074763;28;20130;-68
2023/05/17 00:50:51;;;;;;;4.47;0.70;;;7.70;99.90;;;;;;5092083;28;20048;-68
2023/05/17 00:53:18;;;;;;;1.17;0.55;;;7.60;99.90;;;;;;5090336;28;20110;-67
2023/05/17 00:55:44;;;;;;;0.40;0.38;;;7.50;99.90;;;;;;5091956;28;20036;-67
2023/05/17 00:58:11;;;;;;;0.95;0.75;;;7.50;99.90;;;;;;5092251;28;20032;-68
2023/05/17 01:00:37;;;;;;;2.25;0.65;;;7.40;99.90;;;;;;5090327;28;20036;-67
2023/05/17 01:03:03;;;;;;;0.93;0.40;;;7.30;99.90;;;;;;5091025;28;20040;-67
2023/05/17 01:05:30;;;;;;;0.43;0.43;;;7.30;99.90;;;;;;5074144;28;20373;-67
2023/05/17 01:07:55;;;;;;;0.80;0.55;;;7.20;99.90;;;;;;5091469;28;20040;-67
2023/05/17 01:10:34;;;;;;;2.92;0.40;;;7.20;99.90;;;;;;5090169;28;20485;-67
2023/05/17 01:13:18;;;;;;;1.55;0.50;;;7.10;99.90;;;;;;5090393;28;20044;-67
2023/05/17 01:16:07;;;;;;;0.35;0.20;;;7.10;99.90;;;;;;5090416;28;20503;-67
2023/05/17 01:18:45;;;;;;;1.00;0.65;;;7.00;99.90;;;;;;5073594;28;20052;-67
2023/05/17 01:21:43;;;;;;;1.60;0.95;;;7.00;99.90;;;;;;5090915;28;20610;-67
2023/05/17 01:24:30;;;;;;;0.20;0.20;;;6.90;99.90;;;;;;5059812;28;20129;-67
2023/05/17 01:26:58;;;;;;;0.93;0.40;;;6.90;99.90;;;;;;5089770;28;20036;-67
2023/05/17 01:29:27;;;;;;;0.73;0.40;;;6.90;99.90;;;;;;5090385;28;20384;-67
2023/05/17 01:31:54;;;;;;;0.60;0.30;;;6.90;99.90;;;;;;5090314;28;20036;-67
2023/05/17 01:34:27;;;;;;;3.60;1.23;;;6.80;99.90;;;;;;5090839;28;20047;-67
2023/05/17 01:36:53;;;;;;;3.30;0.30;;;6.70;99.90;;;;;;5090308;28;20047;-67
2023/05/17 01:39:19;;;;;;;1.17;0.40;;;6.70;99.90;;;;;;5090161;28;20036;-67
2023/05/17 01:42:04;;;;;;;0.40;0.40;;;6.70;99.90;;;;;;5089483;28;20055;-67
2023/05/17 01:44:44;;;;;;;0.52;0.30;;;6.60;99.90;;;;;;5089875;28;20040;-67
2023/05/17 01:47:48;;;;;;;0.52;0.45;;;6.50;99.90;;;;;;5073055;28;20048;-67
2023/05/17 01:50:18;;;;;;;2.20;0.40;;;6.50;99.90;;;;;;5046780;28;20057;-67
2023/05/17 01:53:01;;;;;;;0.73;0.30;;;6.40;99.90;;;;;;5069403;28;20041;-67
2023/05/17 01:55:56;;;;;;;0.95;0.40;;;6.30;99.90;;;;;;5069896;28;20048;-67
2023/05/17 01:58:25;;;;;;;1.08;0.65;;;6.30;99.90;;;;;;5052817;28;20508;-67
2023/05/17 02:00:54;;;;;;;3.15;0.70;;;6.20;99.90;;;;;;5052796;28;20139;-67
2023/05/17 02:03:20;;;;;;;3.45;0.70;;;6.10;99.90;;;;;;5068637;28;20052;-67
2023/05/17 02:05:46;;;;;;;0.60;0.50;;;6.20;99.90;;;;;;5069604;28;20045;-67
2023/05/17 02:08:13;;;;;;;0.77;0.45;;;6.20;99.90;;;;;;5070570;28;20097;-67
2023/05/17 02:10:39;;;;;;;0.55;0.40;;;6.20;99.90;;;;;;5069001;28;20044;-67
2023/05/17 02:13:05;;;;;;;1.23;0.52;;;6.20;99.90;;;;;;5069068;28;20048;-67
2023/05/17 02:15:31;;;;;;;5.50;0.57;;;6.20;99.90;;;;;;5052268;28;20044;-67
2023/05/17 02:17:57;;;;;;;4.43;0.85;;;6.20;99.90;;;;;;5068756;28;20044;-67
2023/05/17 02:20:23;;;;;;;1.20;0.82;;;6.20;99.90;;;;;;5069125;28;20378;-67
2023/05/17 02:22:49;;;;;;;6.05;0.90;;;6.20;99.90;;;;;;5069150;28;20067;-67
2023/05/17 02:25:15;;;;;;;0.38;0.20;;;6.30;99.90;;;;;;5068878;28;20044;-67
2023/05/17 02:27:41;;;;;;;1.02;0.57;;;6.30;99.90;;;;;;5070280;28;20036;-67
2023/05/17 02:30:08;;;;;;;0.88;0.22;;;6.40;99.90;;;;;;5068151;28;20046;-67
2023/05/17 02:32:33;;;;;;;0.45;0.40;;;6.50;99.90;;;;;;5052113;28;20477;-67
2023/05/17 02:34:59;;;;;;;2.33;0.38;;;6.60;99.90;;;;;;5068780;28;20131;-67
2023/05/17 02:37:25;;;;;;;0.52;0.40;;;6.60;99.90;;;;;;5068239;28;20409;-67
2023/05/17 02:39:51;;;;;;;0.43;0.38;;;6.60;99.90;;;;;;5069824;28;20040;-67
2023/05/17 02:42:17;;;;;;;0.60;0.43;;;6.70;99.90;;;;;;5070264;28;20041;-67
2023/05/17 02:44:43;;;;;;;1.08;0.63;;;6.70;99.90;;;;;;5069637;28;20493;-67
2023/05/17 02:47:08;;;;;;;0.65;0.40;;;6.70;99.90;;;;;;5068865;28;20102;-67
2023/05/17 02:49:34;;;;;;;4.53;0.85;;;6.80;99.90;;;;;;5098253;28;20051;-67
2023/05/17 02:52:01;;;;;;;1.75;0.45;;;6.80;99.90;;;;;;5091923;28;20055;-67
2023/05/17 02:54:27;;;;;;;0.75;0.40;;;6.90;99.90;;;;;;5110501;28;20054;-67
2023/05/17 02:56:52;;;;;;;1.67;0.60;;;7.00;99.90;;;;;;5091938;28;20396;-67
2023/05/17 02:59:18;;;;;;;0.68;0.40;;;6.90;99.90;;;;;;5091287;28;20039;-67
2023/05/17 03:01:44;;;;;;;5.25;0.98;;;6.90;99.90;;;;;;5075193;28;20058;-67
2023/05/17 03:04:10;;;;;;;1.33;0.60;;;6.90;99.90;;;;;;5091849;28;20035;-67
2023/05/17 03:06:37;;;;;;;1.55;0.80;;;6.90;99.90;;;;;;5109806;28;20047;-67
2023/05/17 03:09:02;;;;;;;0.52;0.38;;;6.90;99.90;;;;;;5110306;28;20085;-67
2023/05/17 03:11:28;;;;;;;4.15;0.55;;;6.80;99.90;;;;;;5092020;28;20429;-67
2023/05/17 03:13:54;;;;;;;0.10;0.10;;;6.80;99.90;;;;;;5091259;28;20043;-67
2023/05/17 03:16:20;;;;;;;1.05;0.40;;;6.80;99.90;;;;;;5092164;28;20043;-67
2023/05/17 03:18:46;;;;;;;2.47;0.50;;;6.70;99.90;;;;;;5091470;28;20096;-67
2023/05/17 03:21:12;;;;;;;3.30;1.15;;;6.70;99.90;;;;;;5110590;28;20074;-67
2023/05/17 03:23:37;;;;;;;2.28;0.63;;;6.60;99.90;;;;;;5109972;28;20062;-67
2023/05/17 03:26:03;;;;;;;0.30;0.30;;;6.50;99.90;;;;;;5091214;28;20040;-67
2023/05/17 03:28:29;;;;;;;0.75;0.28;;;6.40;99.90;;;;;;5091692;28;20043;-67
2023/05/17 03:30:55;;;;;;;0.85;0.63;;;6.40;99.90;;;;;;5092012;28;20126;-67
2023/05/17 03:33:20;;;;;;;3.22;1.52;;;6.30;99.90;;;;;;5110408;28;20449;-67
2023/05/17 03:35:46;;;;;;;3.83;0.35;;;6.30;99.90;;;;;;5114078;28;20056;-67
2023/05/17 03:38:12;;;;;;;0.65;0.55;;;6.30;99.90;;;;;;5095590;28;20119;-67
2023/05/17 03:40:38;;;;;;;0.40;0.40;;;6.30;99.90;;;;;;5095321;28;20168;-67
2023/05/17 03:43:04;;;;;;;0.50;0.38;;;6.30;99.90;;;;;;5114243;28;20036;-67
2023/05/17 03:45:30;;;;;;;0.20;0.20;;;6.30;99.90;;;;;;5095960;28;20721;-67
2023/05/17 03:47:55;;;;;;;0.65;0.52;;;6.30;99.90;;;;;;5094492;28;20039;-67
2023/05/17 03:50:21;;;;;;;1.23;0.30;;;6.40;99.90;;;;;;5095512;28;20047;-67
2023/05/17 03:52:47;;;;;;;1.23;0.57;;;6.40;99.90;;;;;;5095875;28;20096;-67
2023/05/17 03:55:13;;;;;;;0.15;0.15;;;6.40;99.90;;;;;;5077835;28;20097;-67
2023/05/17 03:57:39;;;;;;;0.63;0.47;;;6.40;99.90;;;;;;5095560;28;20039;-67
2023/05/17 04:00:09;;;;;;;2.72;0.40;;;6.40;99.90;;;;;;5095205;28;20036;-67
2023/05/17 04:02:35;;;;;;;0.75;0.75;;;6.40;99.90;;;;;;5094768;28;20069;-67
2023/05/17 04:05:01;;;;;;;0.20;0.20;;;6.40;99.90;;;;;;5095409;28;20047;-67
2023/05/17 04:07:27;;;;;;;1.85;0.20;;;6.40;99.90;;;;;;5095376;28;20096;-67
2023/05/17 04:09:58;;;;;;;0.40;0.38;;;6.50;99.90;;;;;;5094430;28;20051;-67
2023/05/17 04:12:24;;;;;;;1.45;0.40;;;6.60;99.90;;;;;;5095288;28;20085;-67
2023/05/17 04:14:50;;;;;;;0.40;0.22;;;6.60;99.90;;;;;;5094573;28;20062;-67
2023/05/17 04:17:15;;;;;;;1.27;0.25;;;6.70;99.90;;;;;;5113370;28;20104;-67
2023/05/17 04:19:41;;;;;;;0.63;0.55;;;6.80;99.90;;;;;;5095192;28;20484;-67
2023/05/17 04:22:07;;;;;;;0.30;0.30;;;6.70;99.90;;;;;;5077429;28;20054;-67
2023/05/17 04:24:33;;;;;;;0.57;0.20;;;6.80;99.90;;;;;;5095076;28;20104;-67
2023/05/17 04:26:59;;;;;;;0.30;0.30;;;6.80;99.90;;;;;;5094719;28;20075;-67
2023/05/17 04:29:25;;;;;;;3.72;0.40;;;6.90;99.90;;;;;;5112606;28;20039;-68
2023/05/17 04:31:51;;;;;;;1.50;0.50;;;6.90;99.90;;;;;;5113082;28;20050;-68
2023/05/17 04:34:17;;;;;;;0.30;0.25;;;6.90;99.90;;;;;;5112633;28;20043;-67
2023/05/17 04:36:42;;;;;;;0.20;0.17;;;6.90;99.90;;;;;;5093812;28;20038;-67
2023/05/17 04:39:08;;;;;;;1.08;0.40;;;7.00;99.90;;;;;;5112595;28;20058;-67
2023/05/17 04:41:34;;;;;;;1.95;0.60;;;7.00;99.90;;;;;;5094814;28;20042;-68
2023/05/17 04:44:00;;;;;;;0.43;0.40;;;7.10;99.90;;;;;;5112519;28;20487;-67
2023/05/17 04:46:26;;;;;;;0.43;0.30;;;7.10;99.90;;;;;;5111775;28;20032;-67
2023/05/17 04:48:52;;;;;;;0.43;0.30;;;7.20;99.90;;;;;;5112420;28;20127;-67
2023/05/17 04:51:18;;;;;;;0.57;0.32;;;7.30;99.90;;;;;;5093708;28;20519;-68
2023/05/17 04:53:43;;;;;;;1.35;0.65;;;7.30;99.90;;;;;;5112691;28;20095;-67
2023/05/17 04:56:09;;;;;;;0.70;0.45;;;7.40;99.90;;;;;;5094274;28;20046;-67
2023/05/17 04:58:35;;;;;;;2.42;0.43;;;7.40;99.90;;;;;;5093669;28;20069;-68
2023/05/17 05:01:02;;;;;;;0.88;0.43;;;7.40;99.90;;;;;;5093983;28;20039;-68
2023/05/17 05:03:28;;;;;;;0.20;0.20;;;7.50;99.90;;;;;;5094040;28;20461;-67
2023/05/17 05:05:54;;;;;;;0.13;0.13;;;7.50;99.90;;;;;;5093414;28;20047;-68
2023/05/17 05:08:20;;;;;;;4.82;0.43;;;7.60;99.90;;;;;;5094014;28;20073;-67
2023/05/17 05:10:45;;;;;;;1.05;0.77;;;7.60;99.90;;;;;;5093643;28;20036;-67
2023/05/17 05:13:11;;;;;;;0.68;0.38;;;7.70;99.90;;;;;;5094027;28;20039;-67
2023/05/17 05:15:37;;;;;;;2.60;0.50;;;7.70;99.90;;;;;;5094166;28;20044;-67
2023/05/17 05:18:03;;;;;;;0.38;0.20;;;7.70;99.90;;;;;;5093480;28;20409;-67
2023/05/17 05:20:30;;;;;;;1.20;0.28;;;7.70;99.90;;;;;;5094072;28;20112;-67
2023/05/17 05:22:57;;;;;;;0.28;0.22;;;7.70;99.90;;;;;;5077209;28;20434;-68
2023/05/17 05:25:23;;;;;;;0.30;0.30;;;7.70;99.90;;;;;;5093470;28;20043;-67
2023/05/17 05:27:49;;;;;;;0.43;0.30;;;7.80;99.90;;;;;;5093563;28;20069;-67
2023/05/17 05:30:20;;;;;;;0.20;0.20;;;7.90;99.90;;;;;;5093551;28;20124;-68
2023/05/17 05:32:48;;;;;;;2.80;0.98;;;8.00;99.90;;;;;;5092935;28;20055;-68
2023/05/17 05:35:14;;;;;;;0.95;0.50;;;8.20;99.90;;;;;;5111838;28;20054;-68
2023/05/17 05:37:41;;;;;;;0.15;0.15;;;8.30;99.90;;;;;;5093416;28;20032;-67
2023/05/17 05:40:08;;;;;;;0.63;0.40;;;8.40;99.90;;;;;;5092756;28;20051;-67
2023/05/17 05:42:34;;;;;;;2.03;0.60;;;8.50;99.90;;;;;;5111513;28;20039;-67
2023/05/17 05:45:00;;;;;;;0.30;0.30;;;8.60;99.90;;;;;;5093425;28;20119;-67
2023/05/17 05:47:25;;;;;;;1.45;0.30;;;8.70;99.90;;;;;;5092742;28;20093;-67
2023/05/17 05:49:51;;;;;;;0.32;0.28;;;8.80;99.90;;;;;;5111329;28;20062;-67
2023/05/17 05:52:17;;;;;;;0.43;0.43;;;8.90;99.90;;;;;;5093367;28;20043;-67
2023/05/17 05:54:43;;;;;;;0.10;0.10;;;9.00;99.90;;;;;;5092528;28;20039;-67
2023/05/17 05:57:09;;;;;;;2.63;0.60;;;9.10;99.90;;;;;;5076153;28;20036;-68
2023/05/17 05:59:35;;;;;;;0.40;0.40;;;9.10;99.90;;;;;;5110904;28;20042;-67
2023/05/17 06:02:01;;;;;;;2.17;0.45;;;9.20;99.90;;;;;;5093194;28;20044;-67
2023/05/17 06:04:27;;;;;;;0.22;0.22;;;9.30;99.90;;;;;;5110945;28;20047;-67
2023/05/17 06:06:56;;;;;;;0.30;0.30;;;9.30;99.90;;;;;;5092152;28;20104;-67
2023/05/17 06:09:21;;;;;;;2.10;0.70;;;9.40;99.90;;;;;;5092603;28;20054;-67
2023/05/17 06:11:47;;;;;;;0.50;0.20;;;9.50;99.90;;;;;;5111097;28;20052;-67
2023/05/17 06:14:13;;;;;;;2.80;0.40;;;9.60;99.90;;;;;;5092237;28;20042;-67
2023/05/17 06:16:39;;;;;;;1.25;0.30;;;9.70;99.90;;;;;;5092835;28;20123;-67
2023/05/17 06:19:05;;;;;;;0.82;0.43;;;9.60;99.90;;;;;;5092490;28;20074;-67
2023/05/17 06:21:31;;;;;;;2.13;0.60;;;9.70;99.90;;;;;;5092250;28;20032;-67
2023/05/17 06:23:57;;;;;;;0.88;0.47;;;9.80;99.90;;;;;;5075802;28;20381;-67
2023/05/17 06:26:23;;;;;;;0.95;0.30;;;9.80;99.90;;;;;;5092856;28;20422;-67
2023/05/17 06:28:48;;;;;;;1.10;0.50;;;9.90;99.90;;;;;;5091855;28;20036;-67
2023/05/17 06:31:15;;;;;;;1.00;0.75;;;9.90;99.90;;;;;;5092419;28;20461;-65
2023/05/17 06:33:41;;;;;;;2.45;0.30;;;10.00;99.90;;;;;;5110888;28;20028;-67
2023/05/17 06:36:06;;;;;;;2.60;0.50;;;10.10;99.90;;;;;;5109730;28;20487;-66
2023/05/17 06:38:32;;;;;;;0.57;0.47;;;10.20;99.90;;;;;;5092456;28;20051;-67
2023/05/17 06:40:58;;;;;;;0.30;0.22;;;10.40;99.90;;;;;;5110398;28;20040;-67
2023/05/17 06:43:24;;;;;;;1.27;0.32;;;10.60;99.90;;;;;;5091815;28;20071;-66
2023/05/17 06:45:50;;;;;;;0.65;0.40;;;10.80;99.90;;;;;;5075846;28;20043;-66
2023/05/17 06:48:16;;;;;;;0.65;0.45;;;10.90;99.90;;;;;;5110283;28;20554;-67
2023/05/17 06:50:42;;;;;;;0.98;0.35;;;10.80;99.90;;;;;;5091636;28;20079;-65
2023/05/17 06:53:08;;;;;;;0.40;0.20;;;10.90;99.90;;;;;;5110293;28;20079;-67
2023/05/17 06:55:33;;;;;;;0.80;0.45;;;11.10;99.90;;;;;;5074868;28;20036;-67
2023/05/17 06:57:59;;;;;;;0.80;0.20;;;11.20;99.90;;;;;;5110586;28;20507;-66
2023/05/17 07:00:25;;;;;;;0.40;0.20;;;11.20;99.90;;;;;;5075272;28;20036;-65
2023/05/17 07:02:51;;;;;;;4.97;0.73;;;11.10;99.90;;;;;;5109750;28;20032;-67
2023/05/17 07:05:17;;;;;;;4.65;1.33;;;11.00;99.90;;;;;;5091974;28;20146;-66
2023/05/17 07:07:43;;;;;;;4.35;0.45;;;10.80;99.90;;;;;;5091524;28;20048;-66
2023/05/17 07:10:09;;;;;;;0.40;0.32;;;10.90;99.90;;;;;;5091413;28;20133;-66
2023/05/17 07:12:34;;;;;;;1.75;0.45;;;11.20;99.90;;;;;;5091793;28;20501;-66
2023/05/17 07:15:00;;;;;;;0.80;0.50;;;11.40;99.90;;;;;;5092149;28;20040;-66
2023/05/17 07:17:26;;;;;;;2.97;0.40;;;11.40;99.90;;;;;;5091346;28;20605;-66
2023/05/17 07:19:52;;;;;;;3.50;0.65;;;11.30;99.90;;;;;;5092198;28;20032;-66
2023/05/17 07:22:18;;;;;;;1.58;0.47;;;11.30;99.90;;;;;;5091652;28;20403;-66
2023/05/17 07:24:45;;;;;;;0.85;0.55;;;11.30;99.90;;;;;;5091611;28;20118;-66
2023/05/17 07:27:11;;;;;;;0.10;0.10;;;11.70;99.90;;;;;;5075085;28;20042;-67
2023/05/17 07:29:36;;;;;;;0.52;0.50;;;12.00;99.90;;;;;;5091859;28;20104;-66
2023/05/17 07:32:03;;;;;;;0.20;0.20;;;12.20;99.90;;;;;;5109659;28;20039;-67
2023/05/17 07:34:32;;;;;;;0.45;0.25;;;12.10;99.90;;;;;;5091752;28;20039;-65
2023/05/17 07:36:58;;;;;;;2.00;0.90;;;12.10;99.90;;;;;;5110150;28;20042;-66
2023/05/17 07:39:23;;;;;;;0.45;0.28;;;12.00;99.90;;;;;;5109014;28;20036;-66
2023/05/17 07:41:49;;;;;;;0.65;0.20;;;11.90;99.90;;;;;;5091937;28;20040;-66
2023/05/17 07:44:15;;;;;;;1.05;0.60;;;12.10;99.90;;;;;;5074789;28;20403;-66
2023/05/17 07:46:41;;;;;;;1.65;0.38;;;12.60;99.90;;;;;;5091154;28;20043;-66
2023/05/17 07:49:07;;;;;;;1.83;0.38;;;12.80;99.90;;;;;;5086091;28;20056;-65
2023/05/17 07:51:34;;;;;;;1.45;0.35;;;12.90;99.90;;;;;;5086652;28;20046;-65
2023/05/17 07:54:02;;;;;;;0.60;0.30;;;12.70;99.90;;;;;;5087791;28;20081;-66
2023/05/17 07:56:28;;;;;;;1.75;0.32;;;12.50;99.90;;;;;;5084709;28;20060;-65
2023/05/17 07:58:54;;;;;;;0.98;0.30;;;12.50;99.90;;;;;;5067255;28;20500;-66
2023/05/17 08:01:22;;;;;;;0.65;0.43;;;12.60;99.90;;;;;;5068017;28;20123;-64
2023/05/17 08:03:48;;;;;;;2.80;0.25;;;12.60;99.90;;;;;;5068969;28;20354;-65
2023/05/17 08:06:17;;;;;;;1.17;0.93;;;12.40;99.90;;;;;;5067187;28;20049;-64
2023/05/17 08:08:43;;;;;;;1.02;0.38;;;12.30;99.90;;;;;;5064364;28;20101;-65
2023/05/17 08:11:11;;;;;;;0.32;0.22;;;12.70;99.90;;;;;;5089250;28;20039;-65
2023/05/17 08:13:37;;;;;;;1.67;0.40;;;13.00;99.90;;;;;;5088721;28;20066;-65
2023/05/17 08:16:06;;;;;;;2.63;0.38;;;13.30;99.90;;;;;;5088951;28;20504;-65
2023/05/17 08:18:33;;;;;;;5.18;1.05;;;13.50;99.90;;;;;;5084320;28;20045;-64
2023/05/17 08:20:58;;;;;;;1.70;0.70;;;13.30;99.90;;;;;;5052427;28;20046;-65
2023/05/17 08:23:24;;;;;;;2.10;0.25;;;13.50;99.90;;;;;;5071381;28;20037;-65
2023/05/17 08:25:50;;;;;;;0.57;0.35;;;13.50;99.90;;;;;;5071154;28;20119;-65
2023/05/17 08:28:17;;;;;;;1.08;0.20;;;13.30;99.90;;;;;;5072117;28;20044;-66
2023/05/17 08:30:42;;;;;;;1.00;0.35;;;13.10;99.90;;;;;;5071010;28;20076;-65
2023/05/17 08:33:09;;;;;;;0.63;0.38;;;12.80;99.90;;;;;;5070983;28;20106;-65
2023/05/17 08:35:35;;;;;;;0.45;0.22;;;12.70;99.90;;;;;;5070240;28;20084;-65
2023/05/17 08:38:01;;;;;;;0.93;0.50;;;12.70;99.90;;;;;;5071142;28;20439;-65
2023/05/17 08:40:27;;;;;;;0.38;0.30;;;12.80;99.90;;;;;;5072249;28;20032;-65
2023/05/17 08:42:53;;;;;;;2.08;0.63;;;12.80;99.90;;;;;;5071579;28;20495;-65
2023/05/17 08:45:20;;;;;;;3.33;0.40;;;12.80;99.90;;;;;;5084823;28;20036;-66
2023/05/17 08:47:47;;;;;;;1.33;0.40;;;12.80;99.90;;;;;;5091742;28;20083;-65
2023/05/17 08:50:14;;;;;;;0.57;0.45;;;12.90;99.90;;;;;;5074207;28;20523;-64
2023/05/17 08:52:43;;;;;;;1.08;0.52;;;12.90;99.90;;;;;;5092375;28;20626;-64
2023/05/17 08:55:10;;;;;;;0.77;0.35;;;12.90;99.90;;;;;;5090193;28;20031;-66
2023/05/17 08:57:37;;;;;;;0.93;0.47;;;12.90;99.90;;;;;;5090815;28;20063;-65
2023/05/17 09:00:08;;;;;;;0.80;0.40;;;13.00;99.90;;;;;;5090805;28;20127;-65
2023/05/17 09:02:34;;;;;;;4.18;0.63;;;13.00;99.90;;;;;;5091592;28;20046;-65
2023/05/17 09:05:00;;;;;;;2.40;0.60;;;12.90;99.90;;;;;;5076831;28;20052;-65
2023/05/17 09:07:26;;;;;;;0.65;0.50;;;12.70;99.90;;;;;;5069231;28;20044;-65
2023/05/17 09:09:55;;;;;;;0.98;0.47;;;12.50;99.90;;;;;;5068544;28;20047;-65
2023/05/17 09:12:21;;;;;;;1.45;0.68;;;12.40;99.90;;;;;;5069275;28;20075;-65
2023/05/17 09:14:48;;;;;;;0.43;0.35;;;12.40;99.90;;;;;;5069048;28;20049;-65
2023/05/17 09:17:19;;;;;;;0.45;0.30;;;12.40;99.90;;;;;;5070097;28;20401;-65
2023/05/17 09:19:46;;;;;;;0.77;0.40;;;12.50;99.90;;;;;;5070523;28;20043;-63
2023/05/17 09:22:19;;;;;;;0.68;0.20;;;12.60;99.90;;;;;;5086429;28;20092;-65
2023/05/17 09:24:45;;;;;;;2.63;0.65;;;12.80;99.90;;;;;;5088689;28;20340;-65
2023/05/17 09:27:17;;;;;;;0.20;0.17;;;13.00;99.90;;;;;;5089466;28;20040;-64
2023/05/17 09:29:44;;;;;;;0.93;0.47;;;13.00;99.90;;;;;;5077092;28;20392;-64
2023/05/17 09:32:19;;;;;;;0.30;0.20;;;13.00;99.90;;;;;;5068797;28;20194;-65
2023/05/17 09:34:49;;;;;;;3.17;0.52;;;13.00;99.90;;;;;;5068989;28;20035;-64
2023/05/17 09:37:17;;;;;;;1.65;0.50;;;13.00;99.90;;;;;;5089292;28;20036;-65
2023/05/17 09:39:44;;;;;;;3.25;0.93;;;13.20;99.90;;;;;;5072103;28;20090;-64
2023/05/17 09:42:12;;;;;;;0.80;0.57;;;13.40;99.90;;;;;;5088789;28;20068;-64
2023/05/17 09:44:52;;;;;;;3.30;0.47;;;13.60;99.90;;;;;;5084686;28;20654;-65
2023/05/17 09:47:26;;;;;;;3.80;0.60;;;13.80;99.90;;;;;;5070019;28;20109;-65
2023/05/17 09:49:52;;;;;;;1.48;0.50;;;13.90;99.90;;;;;;5052000;28;20084;-65
2023/05/17 09:52:19;;;;;;;3.17;0.38;;;14.00;99.90;;;;;;5049167;28;20049;-66
2023/05/17 09:54:53;;;;;;;1.60;0.95;;;14.30;99.90;;;;;;5048510;28;20044;-65
2023/05/17 09:57:19;;;;;;;2.08;0.73;;;14.50;99.90;;;;;;5048370;28;20152;-65
2023/05/17 09:59:46;;;;;;;2.58;0.30;;;14.40;99.90;;;;;;5048936;28;20049;-65
2023/05/17 10:02:26;;;;;;;2.83;0.60;;;14.20;99.90;;;;;;5049977;28;20394;-65
2023/05/17 10:04:55;;;;;;;0.88;0.45;;;13.90;99.90;;;;;;5049123;28;20033;-66
2023/05/17 10:07:24;;;;;;;3.85;0.55;;;13.70;99.90;;;;;;5054900;28;20077;-66
2023/05/17 10:09:52;;;;;;;0.93;0.40;;;13.60;99.90;;;;;;5068335;28;20041;-66
2023/05/17 10:12:21;;;;;;;1.05;0.50;;;13.60;99.90;;;;;;5067596;28;20369;-65
2023/05/17 10:14:47;;;;;;;5.15;0.93;;;13.50;99.90;;;;;;5069455;28;20409;-65
2023/05/17 10:17:15;;;;;;;3.40;0.52;;;13.40;99.90;;;;;;5068079;28;20098;-65
2023/05/17 10:19:42;;;;;;;1.55;0.90;;;13.60;99.90;;;;;;5050862;28;20110;-65
2023/05/17 10:22:08;;;;;;;2.65;0.30;;;13.80;99.90;;;;;;5069227;28;20052;-65
2023/05/17 10:24:37;;;;;;;3.03;0.20;;;13.90;99.90;;;;;;5068145;28;20040;-64
2023/05/17 10:27:06;;;;;;;0.95;0.30;;;14.00;99.90;;;;;;5067371;28;20120;-65
2023/05/17 10:29:35;;;;;;;0.10;0.10;;;14.30;99.90;;;;;;5067951;28;20123;-64
2023/05/17 10:32:04;;;;;;;2.20;0.85;;;14.60;99.90;;;;;;5063469;28;20041;-64
2023/05/17 10:34:32;;;;;;;1.57;0.17;;;14.60;99.90;;;;;;5063596;28;20040;-65
2023/05/17 10:37:00;;;;;;;1.73;0.50;;;14.40;99.90;;;;;;5031289;28;20707;-65
2023/05/17 10:39:26;;;;;;;0.50;0.32;;;14.50;99.90;;;;;;5047493;28;20069;-64
2023/05/17 10:41:55;;;;;;;0.30;0.20;;;15.00;99.90;;;;;;5047281;28;20041;-63
2023/05/17 10:44:21;;;;;;;0.88;0.40;;;15.10;99.90;;;;;;5047291;28;20502;-64
2023/05/17 10:46:52;;;;;;;4.18;0.75;;;15.00;99.90;;;;;;5048334;28;20053;-65
2023/05/17 10:49:18;;;;;;;0.90;0.68;;;14.90;99.90;;;;;;5064155;28;20496;-65
2023/05/17 10:51:45;;;;;;;5.45;0.60;;;15.00;99.90;;;;;;5031131;28;20052;-64
2023/05/17 10:54:12;;;;;;;0.90;0.40;;;15.60;99.90;;;;;;5046999;28;20068;-66
2023/05/17 10:56:47;;;;;;;1.85;0.57;;;16.00;99.90;;;;;;5047547;28;20097;-64
2023/05/17 10:59:23;;;;;;;2.00;0.60;;;15.80;99.90;;;;;;5048676;28;20037;-64
2023/05/17 11:02:05;;;;;;;0.40;0.30;;;15.50;99.90;;;;;;5047883;28;20044;-64
2023/05/17 11:04:51;;;;;;;0.82;0.30;;;15.40;99.90;;;;;;5048164;28;20473;-65
2023/05/17 11:07:17;;;;;;;0.20;0.20;;;15.50;99.90;;;;;;5049516;28;20074;-65
2023/05/17 11:10:02;;;;;;;0.45;0.30;;;15.70;99.90;;;;;;5047598;28;20071;-63
2023/05/17 11:12:43;;;;;;;1.10;0.50;;;15.70;99.90;;;;;;5048355;28;20555;-65
2023/05/17 11:15:14;;;;;;;0.20;0.15;;;15.50;99.90;;;;;;5047631;28;20049;-64
2023/05/17 11:17:43;;;;;;;0.43;0.32;;;15.30;99.90;;;;;;5049674;28;20060;-66
2023/05/17 11:20:15;;;;;;;1.23;0.20;;;15.30;99.90;;;;;;5031827;28;20072;-64
2023/05/17 11:22:48;;;;;;;1.88;0.95;;;15.20;99.90;;;;;;5031295;28;20479;-64
2023/05/17 11:25:14;;;;;;;3.25;0.60;;;15.10;99.90;;;;;;5048173;28;20045;-64
2023/05/17 11:27:48;;;;;;;0.45;0.40;;;15.00;99.90;;;;;;5048275;28;20639;-63
2023/05/17 11:30:19;;;;;;;1.98;0.35;;;14.80;99.90;;;;;;5047917;28;20032;-63
2023/05/17 11:32:50;;;;;;;0.38;0.25;;;15.00;99.90;;;;;;5048379;28;20393;-64
2023/05/17 11:35:23;;;;;;;1.65;0.57;;;14.90;99.90;;;;;;5049536;28;20041;-63
2023/05/17 11:37:52;;;;;;;0.77;0.40;;;14.70;99.90;;;;;;5047552;28;20045;-64
2023/05/17 11:40:26;;;;;;;1.10;0.40;;;14.40;99.90;;;;;;5048036;28;20045;-64
2023/05/17 11:43:18;;;;;;;0.50;0.30;;;14.50;99.90;;;;;;5047793;28;20851;-64
2023/05/17 11:45:49;;;;;;;2.13;0.22;;;15.10;99.90;;;;;;5049365;28;20041;-64
2023/05/17 11:48:17;;;;;;;0.50;0.38;;;15.70;99.90;;;;;;5054378;28;20058;-63
2023/05/17 11:50:45;;;;;;;0.57;0.30;;;15.90;99.90;;;;;;5088973;28;20493;-64
2023/05/17 11:53:12;;;;;;;0.30;0.30;;;15.80;99.20;;;;;;5089284;28;20040;-65
2023/05/17 11:55:40;;;;;;;1.13;0.43;;;15.40;99.30;;;;;;5092320;28;20036;-64
2023/05/17 11:58:08;;;;;;;2.45;0.50;;;15.10;99.20;;;;;;5074690;28;20114;-63
2023/05/17 12:00:34;;;;;;;0.30;0.25;;;14.80;98.40;;;;;;5075205;28;20101;-64
2023/05/17 12:03:16;;;;;;;0.95;0.30;;;14.60;99.90;;;;;;5093073;28;20044;-64
2023/05/17 12:05:42;;;;;;;1.67;0.93;;;14.50;99.90;;;;;;5074307;28;20039;-65
2023/05/17 12:08:08;;;;;;;1.90;0.80;;;14.60;99.90;;;;;;5092922;28;20044;-64
2023/05/17 12:10:34;;;;;;;1.95;0.95;;;15.00;99.90;;;;;;5092105;28;20040;-64
2023/05/17 12:13:00;;;;;;;0.90;0.32;;;15.40;99.90;;;;;;5074973;28;20036;-65
2023/05/17 12:15:29;;;;;;;0.77;0.50;;;15.50;99.90;;;;;;5074728;28;20435;-64
2023/05/17 12:17:55;;;;;;;1.33;0.40;;;15.50;99.30;;;;;;5074035;28;20040;-64
2023/05/17 12:20:20;;;;;;;2.67;0.30;;;15.30;99.90;;;;;;5092790;28;20047;-65
2023/05/17 12:22:54;;;;;;;2.20;0.30;;;15.10;99.90;;;;;;5093173;28;20175;-64
2023/05/17 12:25:23;;;;;;;0.57;0.57;;;15.00;99.90;;;;;;5074275;28;20152;-66
2023/05/17 12:27:50;;;;;;;3.00;0.95;;;14.80;99.90;;;;;;5074750;28;20043;-66
2023/05/17 12:30:16;;;;;;;1.75;0.35;;;14.60;99.90;;;;;;5074795;28;20044;-65
2023/05/17 12:32:43;;;;;;;5.47;0.65;;;14.60;99.90;;;;;;5073898;28;20051;-65
2023/05/17 12:35:10;;;;;;;2.65;1.08;;;14.90;99.90;;;;;;5074374;28;20102;-65
2023/05/17 12:37:36;;;;;;;2.33;0.50;;;15.20;99.90;;;;;;5092674;28;20454;-65
2023/05/17 12:40:04;;;;;;;1.25;0.30;;;15.50;99.90;;;;;;5056952;28;20790;-64
2023/05/17 12:42:32;;;;;;;3.20;0.60;;;15.50;99.90;;;;;;5092461;28;20126;-64
2023/05/17 12:44:59;;;;;;;0.57;0.13;;;15.70;99.90;;;;;;5092458;28;20373;-63
2023/05/17 12:47:29;;;;;;;1.35;0.25;;;15.70;99.90;;;;;;5091736;28;20502;-64
2023/05/17 12:49:55;;;;;;;0.57;0.25;;;15.40;99.90;;;;;;5070646;28;20087;-66
2023/05/17 12:52:21;;;;;;;1.65;0.60;;;15.20;99.90;;;;;;5070833;28;20087;-65
2023/05/17 12:54:49;;;;;;;0.50;0.30;;;15.00;99.90;;;;;;5070883;28;20119;-64
2023/05/17 12:57:17;;;;;;;3.83;0.38;;;14.80;99.90;;;;;;5070525;28;20043;-64